createdAt,value
2018-08-10T06:31:18.181Z,22.40
2018-08-10T06:33:46.501Z,22.30
2018-08-10T06:36:14.693Z,22.20
2018-08-10T06:38:42.921Z,22.20
2018-08-10T06:41:11.500Z,22.10
2018-08-10T06:43:39.727Z,22.10
2018-08-10T06:46:07.936Z,22.00
2018-08-10T06:48:36.170Z,22.00
2018-08-10T06:51:04.414Z,22.00
2018-08-10T06:53:32.880Z,22.10
2018-08-10T06:56:01.136Z,22.00
2018-08-10T06:58:29.368Z,22.00
2018-08-10T07:00:57.585Z,22.10
2018-08-10T07:03:25.985Z,22.20
2018-08-10T07:05:54.196Z,22.30
2018-08-10T07:08:22.439Z,22.30
2018-08-10T07:10:50.659Z,22.40
2018-08-10T07:13:18.989Z,22.40
2018-08-10T07:15:47.136Z,22.40
2018-08-10T07:18:15.372Z,22.40
2018-08-10T07:20:43.588Z,22.40
2018-08-10T07:23:11.817Z,22.40
2018-08-10T07:25:40.028Z,22.40
2018-08-10T07:28:08.264Z,22.50
2018-08-10T07:30:36.475Z,22.30
2018-08-10T07:33:04.745Z,22.20
2018-08-10T07:35:32.958Z,22.20
2018-08-10T07:38:01.205Z,22.30
2018-08-10T07:40:29.408Z,22.20
2018-08-10T07:42:57.640Z,22.30
2018-08-10T07:45:25.862Z,22.30
2018-08-10T07:47:54.068Z,22.30
2018-08-10T07:50:22.291Z,22.40
2018-08-10T07:52:50.511Z,22.40
2018-08-10T07:55:18.740Z,22.50
2018-08-10T07:57:46.952Z,22.60
2018-08-10T08:00:15.181Z,22.70
2018-08-10T08:02:43.389Z,22.70
2018-08-10T08:05:11.616Z,22.90
2018-08-10T08:07:39.828Z,23.10
2018-08-10T08:10:08.089Z,23.20
2018-08-10T08:12:36.319Z,23.00
2018-08-10T08:15:04.896Z,22.80
2018-08-10T08:17:33.108Z,22.80
2018-08-10T08:20:08.359Z,22.60
2018-08-10T08:22:36.573Z,22.40
2018-08-10T08:25:05.385Z,22.20
2018-08-10T08:27:33.600Z,22.10
2018-08-10T08:30:01.825Z,22.00
2018-08-10T08:32:30.040Z,22.00
2018-08-10T08:34:58.418Z,22.00
2018-08-10T08:37:26.544Z,21.90
2018-08-10T08:40:06.161Z,21.90
2018-08-10T08:42:34.367Z,22.00
2018-08-10T08:46:24.517Z,22.10
2018-08-10T08:48:53.000Z,22.00
2018-08-10T08:51:25.605Z,21.50
2018-08-10T08:54:05.059Z,21.30
2018-08-10T08:56:41.252Z,21.30
2018-08-10T08:59:09.496Z,21.40
2018-08-10T09:01:37.741Z,21.50
2018-08-10T09:04:29.999Z,21.50
2018-08-10T09:06:58.225Z,21.50
2018-08-10T09:09:34.983Z,21.40
2018-08-10T09:12:03.218Z,21.30
2018-08-10T09:14:48.359Z,21.30
2018-08-10T09:17:16.665Z,21.20
2018-08-10T09:19:44.841Z,21.20
2018-08-10T09:22:13.484Z,21.20
2018-08-10T09:24:42.185Z,21.20
2018-08-10T09:27:10.416Z,21.10
2018-08-10T09:29:38.668Z,21.10
2018-08-10T09:32:06.907Z,21.20
2018-08-10T09:34:35.129Z,21.30
2018-08-10T09:37:03.664Z,21.30
2018-08-10T09:39:31.895Z,21.30
2018-08-10T09:42:01.387Z,21.50
2018-08-10T09:44:30.261Z,21.50
2018-08-10T09:46:58.505Z,21.60
2018-08-10T09:49:30.367Z,21.80
2018-08-10T09:51:58.596Z,21.90
2018-08-10T09:54:26.887Z,21.80
2018-08-10T09:56:58.508Z,21.80
2018-08-10T09:59:26.890Z,22.00
2018-08-10T10:02:00.576Z,22.00
2018-08-10T10:04:28.805Z,22.00
2018-08-10T10:06:57.016Z,22.20
2018-08-10T10:09:25.257Z,22.30
2018-08-10T10:11:53.479Z,22.10
2018-08-10T10:14:21.722Z,22.20
2018-08-10T10:16:49.932Z,22.20
2018-08-10T10:19:18.149Z,22.10
2018-08-10T10:21:46.360Z,22.40
2018-08-10T10:24:14.596Z,22.50
2018-08-10T10:26:42.807Z,22.60
2018-08-10T10:29:11.024Z,22.60
2018-08-10T10:31:39.243Z,22.70
2018-08-10T10:34:07.464Z,22.40
2018-08-10T10:36:35.689Z,22.50
2018-08-10T10:39:06.205Z,22.50
2018-08-10T10:41:34.473Z,22.60
2018-08-10T10:44:02.668Z,22.80
2018-08-10T10:46:30.879Z,22.90
2018-08-10T10:48:59.104Z,23.00
2018-08-10T10:51:27.330Z,22.90
2018-08-10T10:53:55.555Z,23.10
2018-08-10T10:56:23.775Z,22.80
2018-08-10T10:58:52.020Z,22.80
2018-08-10T11:01:20.223Z,22.90
2018-08-10T11:03:48.439Z,23.00
2018-08-10T11:06:16.650Z,22.90
2018-08-10T11:08:44.892Z,22.80
2018-08-10T11:11:13.104Z,22.80
2018-08-10T11:13:41.392Z,22.80
2018-08-10T11:16:09.596Z,22.90
2018-08-10T11:18:37.828Z,22.90
2018-08-10T11:21:06.040Z,23.20
2018-08-10T11:23:34.248Z,23.00
2018-08-10T11:26:02.489Z,22.90
2018-08-10T11:28:30.700Z,22.90
2018-08-10T11:30:58.912Z,22.90
2018-08-10T11:33:27.141Z,22.80
2018-08-10T11:35:55.353Z,22.90
2018-08-10T11:38:23.601Z,23.10
2018-08-10T11:40:51.809Z,23.20
2018-08-10T11:43:20.015Z,23.20
2018-08-10T11:45:48.243Z,23.40
2018-08-10T11:48:16.457Z,23.60
2018-08-10T11:50:44.691Z,23.80
2018-08-10T11:53:12.891Z,23.70
2018-08-10T11:55:41.124Z,23.70
2018-08-10T11:58:09.335Z,23.70
2018-08-10T12:00:37.564Z,23.70
2018-08-10T12:03:05.951Z,23.70
2018-08-10T12:05:34.188Z,23.80
2018-08-10T12:08:02.404Z,24.00
2018-08-10T12:10:30.637Z,24.10
2018-08-10T12:12:58.894Z,24.00
2018-08-10T12:15:27.122Z,24.30
2018-08-10T12:17:55.327Z,24.60
2018-08-10T12:20:23.548Z,24.70
2018-08-10T12:22:51.770Z,24.60
2018-08-10T12:25:19.992Z,24.30
2018-08-10T12:27:48.199Z,24.30
2018-08-10T12:30:16.498Z,24.30
2018-08-10T12:32:44.676Z,24.20
2018-08-10T12:35:12.908Z,24.40
2018-08-10T12:37:41.131Z,24.40
2018-08-10T12:40:09.403Z,24.50
2018-08-10T12:42:37.907Z,24.60
2018-08-10T12:45:06.138Z,24.70
2018-08-10T12:47:34.344Z,24.90
2018-08-10T12:50:02.584Z,25.10
2018-08-10T12:52:30.800Z,25.10
2018-08-10T12:54:59.080Z,25.30
2018-08-10T12:57:27.288Z,25.40
2018-08-10T12:59:55.544Z,25.10
2018-08-10T13:02:23.768Z,24.80
2018-08-10T13:04:52.007Z,24.60
2018-08-10T13:07:20.214Z,24.40
2018-08-10T13:09:48.575Z,24.40
2018-08-10T13:12:16.771Z,24.30
2018-08-10T13:14:45.011Z,24.50
2018-08-10T13:17:13.225Z,24.70
2018-08-10T13:19:41.463Z,24.60
2018-08-10T13:22:09.673Z,24.50
2018-08-10T13:24:37.899Z,24.50
2018-08-10T13:27:06.141Z,24.60
2018-08-10T13:29:34.372Z,24.70
2018-08-10T13:32:02.575Z,24.60
2018-08-10T13:34:30.775Z,24.50
2018-08-10T13:36:58.997Z,24.50
2018-08-10T13:39:27.212Z,24.60
2018-08-10T13:41:55.436Z,24.70
2018-08-10T13:44:23.651Z,25.00
2018-08-10T13:46:51.887Z,24.70
2018-08-10T13:49:20.103Z,24.80
2018-08-10T13:51:48.341Z,25.10
2018-08-10T13:54:16.547Z,25.50
2018-08-10T13:56:44.775Z,25.50
2018-08-10T13:59:12.992Z,25.50
2018-08-10T14:01:41.217Z,25.40
2018-08-10T14:04:09.444Z,25.50
2018-08-10T14:06:37.784Z,25.40
2018-08-10T14:09:08.716Z,25.30
2018-08-10T14:11:36.954Z,25.20
2018-08-10T14:14:05.183Z,25.20
2018-08-10T14:16:33.407Z,25.50
2018-08-10T14:19:01.620Z,25.60
2018-08-10T14:21:29.855Z,25.40
2018-08-10T14:23:58.055Z,25.20
2018-08-10T14:26:26.301Z,25.00
2018-08-10T14:28:54.531Z,24.90
2018-08-10T14:31:22.760Z,24.60
2018-08-10T14:33:50.972Z,24.50
2018-08-10T14:36:19.193Z,24.50
2018-08-10T14:38:47.404Z,24.70
2018-08-10T14:41:15.619Z,24.80
2018-08-10T14:43:43.839Z,24.90
2018-08-10T14:46:12.071Z,24.90
2018-08-10T14:48:40.283Z,25.00
2018-08-10T14:51:08.525Z,24.80
2018-08-10T14:53:36.797Z,24.60
2018-08-10T14:56:05.024Z,24.50
2018-08-10T14:58:33.239Z,24.30
2018-08-10T15:01:01.460Z,24.20
2018-08-10T15:03:36.564Z,24.00
2018-08-10T15:06:04.791Z,23.90
2018-08-10T15:08:33.025Z,24.00
2018-08-10T15:11:01.305Z,24.00
2018-08-10T15:13:29.524Z,24.00
2018-08-10T15:15:57.756Z,24.10
2018-08-10T15:18:25.964Z,24.20
2018-08-10T15:20:54.184Z,24.40
2018-08-10T15:23:22.391Z,24.50
2018-08-10T15:25:50.639Z,24.70
2018-08-10T15:28:18.847Z,24.90
2018-08-10T15:31:15.757Z,24.80
2018-08-10T15:33:43.955Z,24.60
2018-08-10T15:36:12.184Z,24.70
2018-08-10T15:38:40.396Z,24.80
2018-08-10T15:41:08.627Z,24.90
2018-08-10T15:43:36.868Z,25.00
2018-08-10T15:46:05.167Z,25.00
2018-08-10T15:48:33.390Z,25.10
2018-08-10T15:51:01.598Z,25.30
2018-08-10T15:53:29.819Z,25.40
2018-08-10T15:55:58.075Z,25.40
2018-08-10T15:58:26.288Z,25.30
2018-08-10T16:00:54.508Z,25.20
2018-08-10T16:03:22.738Z,25.20
2018-08-10T16:05:50.961Z,25.30
2018-08-10T16:08:19.179Z,25.30
2018-08-10T16:10:47.396Z,25.40
2018-08-10T16:13:15.647Z,25.50
2018-08-10T16:15:43.856Z,25.30
2018-08-10T16:18:12.076Z,25.20
2018-08-10T16:20:40.288Z,25.20
2018-08-10T16:23:08.536Z,25.10
2018-08-10T16:25:36.779Z,25.00
2018-08-10T16:28:05.008Z,24.80
2018-08-10T16:30:33.243Z,24.70
2018-08-10T16:33:01.472Z,24.40
2018-08-10T16:35:29.680Z,24.30
2018-08-10T16:37:57.919Z,24.10
2018-08-10T16:40:26.132Z,24.00
2018-08-10T16:42:54.348Z,23.90
2018-08-10T16:45:22.555Z,23.90
2018-08-10T16:47:50.800Z,23.90
2018-08-10T16:50:19.578Z,23.80
2018-08-10T16:52:47.868Z,23.70
2018-08-10T16:55:17.439Z,23.70
2018-08-10T16:57:52.992Z,23.60
2018-08-10T17:00:21.915Z,23.60
2018-08-10T17:02:50.216Z,23.50
2018-08-10T17:05:18.462Z,23.50
2018-08-10T17:07:46.707Z,23.50
2018-08-10T17:10:14.912Z,23.40
2018-08-10T17:12:44.910Z,23.50
2018-08-10T17:15:14.599Z,23.60
2018-08-10T17:17:43.892Z,23.60
2018-08-10T17:20:12.326Z,23.60
2018-08-10T17:22:40.997Z,23.50
2018-08-10T17:25:10.363Z,23.50
2018-08-10T17:27:38.660Z,23.40
2018-08-10T17:30:09.258Z,23.30
2018-08-10T17:32:37.804Z,23.20
2018-08-10T17:35:07.128Z,23.20
2018-08-10T17:37:35.355Z,23.00
2018-08-10T17:40:03.989Z,23.00
2018-08-10T17:42:32.223Z,22.90
2018-08-10T17:45:00.456Z,22.80
2018-08-10T17:47:28.683Z,22.70
2018-08-10T17:49:56.888Z,22.60
2018-08-10T17:52:25.111Z,22.50
2018-08-10T17:54:53.324Z,22.30
2018-08-10T17:57:21.556Z,22.20
2018-08-10T17:59:49.936Z,21.90
2018-08-10T18:02:18.153Z,21.80
2018-08-10T18:04:46.459Z,21.60
2018-08-10T18:07:14.664Z,21.40
2018-08-10T18:09:42.896Z,21.20
2018-08-10T18:12:11.113Z,21.00
2018-08-10T18:14:39.363Z,20.80
2018-08-10T18:17:07.576Z,20.60
2018-08-10T18:19:35.796Z,20.50
2018-08-10T18:22:04.003Z,20.40
2018-08-10T18:24:32.223Z,20.20
2018-08-10T18:27:00.436Z,20.00
2018-08-10T18:29:28.669Z,19.90
2018-08-10T18:31:56.872Z,19.80
2018-08-10T18:34:25.100Z,19.70
2018-08-10T18:36:53.311Z,19.50
2018-08-10T18:39:21.532Z,19.40
2018-08-10T18:41:49.744Z,19.30
2018-08-10T18:44:17.988Z,19.20
2018-08-10T18:46:46.199Z,19.00
2018-08-10T18:49:14.433Z,18.90
2018-08-10T18:51:42.644Z,18.80
2018-08-10T18:54:10.885Z,18.70
2018-08-10T18:56:39.096Z,18.60
2018-08-10T18:59:07.340Z,18.50
2018-08-10T19:01:35.557Z,18.40
2018-08-10T19:04:03.800Z,18.20
2018-08-10T19:06:32.006Z,18.10
2018-08-10T19:09:00.231Z,18.00
2018-08-10T19:11:28.444Z,17.90
2018-08-10T19:13:56.691Z,17.80
2018-08-10T19:16:25.020Z,17.70
2018-08-10T19:18:53.300Z,17.70
2018-08-10T19:21:21.528Z,17.60
2018-08-10T19:23:49.756Z,17.50
2018-08-10T19:26:18.022Z,17.40
2018-08-10T19:28:46.256Z,17.30
2018-08-10T19:31:14.473Z,17.30
2018-08-10T19:33:42.700Z,17.20
2018-08-10T19:36:10.908Z,17.10
2018-08-10T19:38:39.147Z,17.00
2018-08-10T19:41:07.369Z,17.00
2018-08-10T19:43:35.596Z,16.90
2018-08-10T19:46:03.803Z,16.90
2018-08-10T19:48:32.097Z,16.70
2018-08-10T19:51:00.272Z,16.70
2018-08-10T19:53:28.471Z,16.70
2018-08-10T19:55:56.747Z,16.60
2018-08-10T19:58:25.323Z,16.50
2018-08-10T20:00:53.547Z,16.40
2018-08-10T20:03:21.748Z,16.30
2018-08-10T20:05:49.989Z,16.30
2018-08-10T20:08:18.249Z,16.20
2018-08-10T20:10:46.459Z,16.20
